createdAt,value
2019-02-17T00:01:05.391Z,8.44
2019-02-17T00:03:34.226Z,8.38
2019-02-17T00:06:03.106Z,8.46
2019-02-17T00:08:31.971Z,8.20
2019-02-17T00:11:00.567Z,8.23
2019-02-17T00:13:29.155Z,8.17
2019-02-17T00:15:57.739Z,8.23
2019-02-17T00:18:26.332Z,8.23
2019-02-17T00:20:55.177Z,8.19
2019-02-17T00:23:23.848Z,8.08
2019-02-17T00:25:52.684Z,8.11
2019-02-17T00:28:21.294Z,8.08
2019-02-17T00:30:50.096Z,8.01
2019-02-17T00:33:18.744Z,8.11
2019-02-17T00:35:47.798Z,8.36
2019-02-17T00:38:16.376Z,8.19
2019-02-17T00:40:44.956Z,8.17
2019-02-17T00:43:13.552Z,8.08
2019-02-17T00:45:42.146Z,8.04
2019-02-17T00:48:10.707Z,8.09
2019-02-17T00:50:39.616Z,8.09
2019-02-17T00:53:08.182Z,7.80
2019-02-17T00:55:36.858Z,7.84
2019-02-17T00:58:05.440Z,8.05
2019-02-17T01:00:34.066Z,7.81
2019-02-17T01:03:02.655Z,7.88
2019-02-17T01:05:31.259Z,7.96
2019-02-17T01:08:00.098Z,7.83
2019-02-17T01:10:28.708Z,7.65
2019-02-17T01:12:57.533Z,7.77
2019-02-17T01:15:26.119Z,7.89
2019-02-17T01:17:54.949Z,7.40
2019-02-17T01:20:23.765Z,7.69
2019-02-17T01:22:52.593Z,7.42
2019-02-17T01:25:21.191Z,7.50
2019-02-17T01:27:49.759Z,7.48
2019-02-17T01:30:18.593Z,7.66
2019-02-17T01:32:47.243Z,7.52
2019-02-17T01:35:15.800Z,7.55
2019-02-17T01:37:44.398Z,7.70
2019-02-17T01:40:13.121Z,7.56
2019-02-17T01:42:41.794Z,7.32
2019-02-17T01:45:10.566Z,7.40
2019-02-17T01:47:39.175Z,7.44
2019-02-17T01:50:08.017Z,7.30
2019-02-17T01:52:36.857Z,7.41
2019-02-17T01:55:05.557Z,7.53
2019-02-17T01:57:34.430Z,7.37
2019-02-17T02:00:03.208Z,7.50
2019-02-17T02:02:32.050Z,7.45
2019-02-17T02:05:00.601Z,7.30
2019-02-17T02:07:29.467Z,7.51
2019-02-17T02:09:58.049Z,7.28
2019-02-17T02:12:26.883Z,7.16
2019-02-17T02:14:55.456Z,7.05
2019-02-17T02:17:24.073Z,7.08
2019-02-17T02:19:52.675Z,7.25
2019-02-17T02:22:21.586Z,6.94
2019-02-17T02:24:50.199Z,6.70
2019-02-17T02:27:18.770Z,7.08
2019-02-17T02:29:47.357Z,7.18
2019-02-17T02:32:16.265Z,7.05
2019-02-17T02:34:44.888Z,7.11
2019-02-17T02:37:13.592Z,6.99
2019-02-17T02:39:42.183Z,6.87
2019-02-17T02:42:11.026Z,6.58
2019-02-17T02:44:40.072Z,6.88
2019-02-17T02:47:08.770Z,6.97
2019-02-17T02:49:37.377Z,6.96
2019-02-17T02:52:05.984Z,7.01
2019-02-17T02:54:34.712Z,6.85
2019-02-17T02:57:03.611Z,6.45
2019-02-17T02:59:32.953Z,6.70
2019-02-17T03:02:01.543Z,7.01
2019-02-17T03:04:30.266Z,7.16
2019-02-17T03:07:01.368Z,7.23
2019-02-17T03:09:29.969Z,6.93
2019-02-17T03:11:58.642Z,6.79
2019-02-17T03:14:27.272Z,7.09
2019-02-17T03:16:55.890Z,6.93
2019-02-17T03:19:24.512Z,6.89
2019-02-17T03:21:53.129Z,7.03
2019-02-17T03:24:21.737Z,6.89
2019-02-17T03:26:50.558Z,6.89
2019-02-17T03:29:19.121Z,6.74
2019-02-17T03:31:47.952Z,6.79
2019-02-17T03:34:16.815Z,7.50
2019-02-17T03:36:45.674Z,6.64
2019-02-17T03:39:14.319Z,6.59
2019-02-17T03:41:42.925Z,6.73
2019-02-17T03:44:11.566Z,6.64
2019-02-17T03:46:40.832Z,6.64
2019-02-17T03:49:09.850Z,6.78
2019-02-17T03:51:38.506Z,6.59
2019-02-17T03:54:07.090Z,6.82
2019-02-17T03:56:35.705Z,6.69
2019-02-17T03:59:04.487Z,6.75
2019-02-17T04:01:33.600Z,6.72
2019-02-17T04:04:02.430Z,6.60
2019-02-17T04:06:31.097Z,6.34
2019-02-17T04:09:00.109Z,6.28
2019-02-17T04:11:29.165Z,6.46
2019-02-17T04:13:57.796Z,6.31
2019-02-17T04:16:26.552Z,6.07
2019-02-17T04:18:55.524Z,6.11
2019-02-17T04:21:24.534Z,6.46
2019-02-17T04:23:53.136Z,6.10
2019-02-17T04:26:21.777Z,6.22
2019-02-17T04:28:50.651Z,6.26
2019-02-17T04:31:19.469Z,6.45
2019-02-17T04:33:48.453Z,6.39
2019-02-17T04:36:17.113Z,6.62
2019-02-17T04:38:45.820Z,6.54
2019-02-17T04:41:14.470Z,6.49
2019-02-17T04:43:43.323Z,6.13
2019-02-17T04:46:12.167Z,7.21
2019-02-17T04:48:40.780Z,6.93
2019-02-17T04:51:09.436Z,7.18
2019-02-17T04:53:38.023Z,7.34
2019-02-17T04:56:06.877Z,7.36
2019-02-17T04:58:35.722Z,7.53
2019-02-17T05:01:04.311Z,7.15
2019-02-17T05:03:33.118Z,7.45
2019-02-17T05:06:02.100Z,7.52
2019-02-17T05:08:30.801Z,7.00
2019-02-17T05:10:59.383Z,7.12
2019-02-17T05:13:27.949Z,7.26
2019-02-17T05:15:56.599Z,7.22
2019-02-17T05:18:25.201Z,7.48
2019-02-17T05:20:53.776Z,7.57
2019-02-17T05:23:22.386Z,7.43
2019-02-17T05:25:51.109Z,7.53
2019-02-17T05:28:19.788Z,7.53
2019-02-17T05:30:52.969Z,6.89
2019-02-17T05:33:19.202Z,6.53
2019-02-17T05:35:47.811Z,6.46
2019-02-17T05:38:16.429Z,6.47
2019-02-17T05:40:44.983Z,6.58
2019-02-17T05:43:13.589Z,6.59
2019-02-17T05:45:42.144Z,6.30
2019-02-17T05:48:10.728Z,6.31
2019-02-17T05:50:39.303Z,6.52
2019-02-17T05:53:07.892Z,6.45
2019-02-17T05:55:36.481Z,6.46
2019-02-17T05:58:05.060Z,6.54
2019-02-17T06:00:35.461Z,6.48
2019-02-17T06:03:04.063Z,6.59
2019-02-17T06:05:32.651Z,6.49
2019-02-17T06:08:01.224Z,6.58
2019-02-17T06:10:29.823Z,6.51
2019-02-17T06:12:58.420Z,6.62
2019-02-17T06:15:27.004Z,6.65
2019-02-17T06:17:55.602Z,6.57
2019-02-17T06:20:24.169Z,6.73
2019-02-17T06:22:52.766Z,6.75
2019-02-17T06:25:21.345Z,6.56
2019-02-17T06:27:50.036Z,6.52
2019-02-17T06:30:18.606Z,6.21
2019-02-17T06:32:47.420Z,5.94
2019-02-17T06:35:16.031Z,6.28
2019-02-17T06:37:44.627Z,6.52
2019-02-17T06:40:13.344Z,6.38
2019-02-17T06:42:41.918Z,6.42
2019-02-17T06:45:10.880Z,6.54
2019-02-17T06:47:39.467Z,6.83
2019-02-17T06:50:09.195Z,6.95
2019-02-17T06:52:37.766Z,7.13
2019-02-17T06:55:38.592Z,7.53
2019-02-17T06:58:07.425Z,7.38
2019-02-17T07:00:41.629Z,7.48
2019-02-17T07:03:10.221Z,7.77
2019-02-17T07:05:48.151Z,7.49
2019-02-17T07:08:16.785Z,7.86
2019-02-17T07:10:45.603Z,7.82
2019-02-17T07:13:14.282Z,8.29
2019-02-17T07:15:43.162Z,8.30
2019-02-17T07:18:11.775Z,8.69
2019-02-17T07:20:40.360Z,8.72
2019-02-17T07:23:08.950Z,8.83
2019-02-17T07:25:37.548Z,8.74
2019-02-17T07:28:06.379Z,8.90
2019-02-17T07:30:34.978Z,9.37
2019-02-17T07:33:03.632Z,9.20
2019-02-17T07:35:32.258Z,9.39
2019-02-17T07:38:00.876Z,9.85
2019-02-17T07:40:29.529Z,9.99
2019-02-17T07:42:58.151Z,10.30
2019-02-17T07:45:27.049Z,10.42
2019-02-17T07:47:55.771Z,10.83
2019-02-17T07:50:24.632Z,11.03
2019-02-17T07:52:53.314Z,11.04
2019-02-17T07:55:21.982Z,11.26
2019-02-17T07:57:50.593Z,11.50
2019-02-17T08:00:19.297Z,11.77
2019-02-17T08:02:49.572Z,11.87
2019-02-17T08:05:18.267Z,12.01
2019-02-17T08:07:47.112Z,12.16
2019-02-17T08:10:15.714Z,12.18
2019-02-17T08:12:44.311Z,11.93
2019-02-17T08:15:13.094Z,11.88
2019-02-17T08:17:41.797Z,12.34
2019-02-17T08:20:10.502Z,12.66
2019-02-17T08:22:39.303Z,12.67
2019-02-17T08:25:08.086Z,12.86
2019-02-17T08:27:36.696Z,13.40
2019-02-17T08:30:05.971Z,12.60
2019-02-17T08:32:34.697Z,13.28
2019-02-17T08:35:03.304Z,13.57
2019-02-17T08:37:32.053Z,13.45
2019-02-17T08:40:00.987Z,14.07
2019-02-17T08:42:29.739Z,14.42
2019-02-17T08:44:58.612Z,14.86
2019-02-17T08:47:27.257Z,14.86
2019-02-17T08:49:56.067Z,14.94
2019-02-17T08:52:24.746Z,15.26
2019-02-17T08:54:53.357Z,15.92
2019-02-17T08:57:22.313Z,16.83
2019-02-17T08:59:50.923Z,17.16
2019-02-17T09:02:19.569Z,18.05
2019-02-17T09:04:48.132Z,18.12
2019-02-17T09:07:16.996Z,18.13
2019-02-17T09:09:45.720Z,19.52
2019-02-17T09:12:14.783Z,19.52
2019-02-17T09:14:43.398Z,20.86
2019-02-17T09:17:12.022Z,21.14
2019-02-17T09:19:40.606Z,20.44
2019-02-17T09:22:09.296Z,20.31
2019-02-17T09:24:37.898Z,20.80
2019-02-17T09:27:06.808Z,21.01
2019-02-17T09:29:35.397Z,22.27
2019-02-17T09:32:04.491Z,22.92
2019-02-17T09:34:33.361Z,22.03
2019-02-17T09:37:01.964Z,22.32
2019-02-17T09:39:30.844Z,22.89
2019-02-17T09:41:59.466Z,22.70
2019-02-17T09:44:28.075Z,22.70
2019-02-17T09:46:56.638Z,22.34
2019-02-17T09:49:25.489Z,22.02
2019-02-17T09:51:54.203Z,21.97
2019-02-17T09:54:23.006Z,20.97
2019-02-17T09:56:51.626Z,21.88
2019-02-17T09:59:20.275Z,22.08
2019-02-17T10:01:49.092Z,21.91
2019-02-17T10:04:17.758Z,21.35
2019-02-17T10:06:46.530Z,20.49
2019-02-17T10:09:15.331Z,20.73
2019-02-17T10:11:43.915Z,20.55
2019-02-17T10:14:12.637Z,21.52
2019-02-17T10:16:41.360Z,22.94
2019-02-17T10:19:09.951Z,23.21
2019-02-17T10:21:38.560Z,23.16
2019-02-17T10:24:07.154Z,24.05
2019-02-17T10:26:36.040Z,25.23
2019-02-17T10:29:04.639Z,24.87
2019-02-17T10:31:33.283Z,24.60
2019-02-17T10:34:01.869Z,24.96
2019-02-17T10:36:33.368Z,24.55
2019-02-17T10:39:01.974Z,23.52
2019-02-17T10:41:30.588Z,24.13
2019-02-17T10:43:59.513Z,24.03
2019-02-17T10:46:28.108Z,24.77
2019-02-17T10:48:57.021Z,25.17
2019-02-17T10:51:26.542Z,24.35
2019-02-17T10:53:55.517Z,23.71
2019-02-17T10:56:24.111Z,23.14
2019-02-17T10:58:52.740Z,23.42
2019-02-17T11:01:21.375Z,21.58
2019-02-17T11:04:04.621Z,21.68
2019-02-17T11:06:33.291Z,21.38
2019-02-17T11:09:02.165Z,21.47
2019-02-17T11:11:30.845Z,20.41
2019-02-17T11:13:59.459Z,19.76
2019-02-17T11:16:28.094Z,19.88
2019-02-17T11:18:56.712Z,19.48
2019-02-17T11:21:25.274Z,19.72
2019-02-17T11:23:53.934Z,19.34
2019-02-17T11:26:22.517Z,19.78
2019-02-17T11:28:51.122Z,19.66
2019-02-17T11:31:19.715Z,19.56
2019-02-17T11:33:48.619Z,19.71
2019-02-17T11:36:17.229Z,19.85
2019-02-17T11:38:45.892Z,19.42
2019-02-17T11:41:14.542Z,19.86
2019-02-17T11:43:43.406Z,18.61
2019-02-17T11:46:12.030Z,19.32
2019-02-17T11:48:40.613Z,19.22
2019-02-17T11:51:10.312Z,18.89
2019-02-17T11:53:38.878Z,19.43
2019-02-17T11:56:09.061Z,19.81
2019-02-17T11:58:38.672Z,19.16
2019-02-17T12:01:07.305Z,19.74
2019-02-17T12:03:36.022Z,19.46
2019-02-17T12:06:04.712Z,20.16
2019-02-17T12:08:33.537Z,21.20
2019-02-17T12:11:02.132Z,23.09
2019-02-17T12:13:30.785Z,25.02
2019-02-17T12:15:59.484Z,26.79
2019-02-17T12:18:28.085Z,27.74
2019-02-17T12:21:33.730Z,28.51
2019-02-17T12:24:30.281Z,29.71
2019-02-17T12:27:15.719Z,29.68
2019-02-17T12:29:47.187Z,30.00
2019-02-17T12:32:16.476Z,31.17
2019-02-17T12:34:45.064Z,29.80
2019-02-17T12:37:13.760Z,29.10
2019-02-17T12:39:42.376Z,29.97
2019-02-17T12:42:11.246Z,29.85
2019-02-17T12:44:40.127Z,28.93
2019-02-17T12:47:08.749Z,28.66
2019-02-17T12:49:37.345Z,28.45
2019-02-17T12:52:05.923Z,27.43
2019-02-17T12:54:34.738Z,27.76
2019-02-17T12:57:04.070Z,28.13
2019-02-17T12:59:32.832Z,28.64
2019-02-17T13:02:01.442Z,29.38
2019-02-17T13:04:30.060Z,28.86
2019-02-17T13:06:58.731Z,27.77
2019-02-17T13:09:27.877Z,28.00
2019-02-17T13:11:56.490Z,28.43
2019-02-17T13:14:25.109Z,27.97
2019-02-17T13:16:53.707Z,28.69
2019-02-17T13:19:22.371Z,27.84
2019-02-17T13:21:51.023Z,28.33
2019-02-17T13:24:19.668Z,27.70
2019-02-17T13:26:48.275Z,28.23
2019-02-17T13:29:16.938Z,27.09
2019-02-17T13:31:45.596Z,26.03
2019-02-17T13:34:14.378Z,25.34
2019-02-17T13:36:43.094Z,22.78
2019-02-17T13:39:11.727Z,22.47
2019-02-17T13:41:40.333Z,22.12
2019-02-17T13:44:08.990Z,22.20
2019-02-17T13:46:37.645Z,21.21
2019-02-17T13:49:06.319Z,21.74
2019-02-17T13:51:35.143Z,21.79
2019-02-17T13:54:03.786Z,20.98
2019-02-17T13:56:32.659Z,20.60
2019-02-17T13:59:01.318Z,20.28
2019-02-17T14:01:30.462Z,20.91
2019-02-17T14:03:59.083Z,20.75
2019-02-17T14:06:27.702Z,20.43
2019-02-17T14:08:56.440Z,20.87
2019-02-17T14:11:25.125Z,20.94
2019-02-17T14:13:53.951Z,20.75
2019-02-17T14:16:22.736Z,21.23
2019-02-17T14:18:51.330Z,21.27
2019-02-17T14:21:20.016Z,20.23
2019-02-17T14:23:48.680Z,21.19
2019-02-17T14:26:17.270Z,19.72
2019-02-17T14:28:45.871Z,20.05
2019-02-17T14:31:14.462Z,19.45
2019-02-17T14:33:43.058Z,19.44
2019-02-17T14:36:11.846Z,20.67
2019-02-17T14:38:40.441Z,20.09
2019-02-17T14:41:09.087Z,20.03
2019-02-17T14:43:37.661Z,20.58
2019-02-17T14:46:06.283Z,20.82
2019-02-17T14:48:34.882Z,20.65
2019-02-17T14:51:03.768Z,20.53
2019-02-17T14:53:32.734Z,20.54
2019-02-17T14:56:01.479Z,19.76
2019-02-17T14:58:30.323Z,19.47
2019-02-17T15:00:59.178Z,20.03
2019-02-17T15:03:27.755Z,20.28
2019-02-17T15:05:56.434Z,19.93
2019-02-17T15:08:25.039Z,19.99
2019-02-17T15:10:53.759Z,19.06
2019-02-17T15:13:24.745Z,19.21
2019-02-17T15:15:52.791Z,19.00
2019-02-17T15:18:21.507Z,18.87
2019-02-17T15:20:50.197Z,18.60
2019-02-17T15:23:18.822Z,18.55
2019-02-17T15:25:47.510Z,17.85
2019-02-17T15:28:16.318Z,18.81
2019-02-17T15:30:45.334Z,19.36
2019-02-17T15:33:14.298Z,19.13
2019-02-17T15:35:42.893Z,18.89
2019-02-17T15:38:11.515Z,18.84
2019-02-17T15:40:40.200Z,19.36
2019-02-17T15:43:08.877Z,19.06
2019-02-17T15:45:37.725Z,19.08
2019-02-17T15:48:06.305Z,18.65
2019-02-17T15:50:34.909Z,18.99
2019-02-17T15:53:03.487Z,19.52
2019-02-17T15:55:32.086Z,18.76
2019-02-17T15:58:00.758Z,19.23
2019-02-17T16:00:29.342Z,19.11
2019-02-17T16:02:58.027Z,18.60
2019-02-17T16:05:26.714Z,19.07
2019-02-17T16:07:55.607Z,18.69
2019-02-17T16:10:24.216Z,18.77
2019-02-17T16:12:52.821Z,18.03
2019-02-17T16:15:22.057Z,17.56
2019-02-17T16:17:51.019Z,17.52
2019-02-17T16:20:19.739Z,17.21
2019-02-17T16:22:48.802Z,17.07
2019-02-17T16:25:17.433Z,16.69
2019-02-17T16:27:46.046Z,15.95
2019-02-17T16:30:15.168Z,16.50
2019-02-17T16:32:43.849Z,16.62
2019-02-17T16:35:12.518Z,15.64
2019-02-17T16:37:41.145Z,15.92
2019-02-17T16:40:11.363Z,15.95
2019-02-17T16:42:40.819Z,15.92
2019-02-17T16:45:10.908Z,16.20
2019-02-17T16:47:39.703Z,16.07
2019-02-17T16:50:10.686Z,15.25
2019-02-17T16:52:39.637Z,15.83
2019-02-17T16:55:09.663Z,15.62
2019-02-17T16:57:38.432Z,15.61
2019-02-17T17:00:08.565Z,15.06
2019-02-17T17:02:38.566Z,14.64
2019-02-17T17:05:08.072Z,15.24
2019-02-17T17:07:36.726Z,15.10
2019-02-17T17:10:06.392Z,15.40
2019-02-17T17:12:37.745Z,15.69
2019-02-17T17:15:06.685Z,14.92
2019-02-17T17:17:35.342Z,14.10
2019-02-17T17:20:04.034Z,14.95
2019-02-17T17:22:32.655Z,14.69
2019-02-17T17:25:01.248Z,14.83
2019-02-17T17:27:29.860Z,15.08
2019-02-17T17:29:58.439Z,15.01
2019-02-17T17:32:27.126Z,15.01
2019-02-17T17:34:58.785Z,14.95
2019-02-17T17:37:26.425Z,14.80
2019-02-17T17:39:55.045Z,14.85
2019-02-17T17:42:23.702Z,13.92
2019-02-17T17:44:52.304Z,13.92
2019-02-17T17:47:21.165Z,13.81
2019-02-17T17:49:49.759Z,13.81
2019-02-17T17:52:19.063Z,13.13
2019-02-17T17:54:48.019Z,12.96
2019-02-17T17:57:17.229Z,12.96
2019-02-17T17:59:45.893Z,12.92
2019-02-17T18:02:14.741Z,12.63
2019-02-17T18:04:43.519Z,12.77
2019-02-17T18:07:12.182Z,12.81
2019-02-17T18:09:40.838Z,12.83
2019-02-17T18:12:09.448Z,12.82
2019-02-17T18:14:38.062Z,12.82
2019-02-17T18:17:06.700Z,12.91
2019-02-17T18:19:35.344Z,13.38
2019-02-17T18:22:07.592Z,13.03
2019-02-17T18:24:36.386Z,12.74
2019-02-17T18:27:05.029Z,12.96
2019-02-17T18:29:33.716Z,12.57
2019-02-17T18:32:02.284Z,12.91
2019-02-17T18:34:30.880Z,13.42
2019-02-17T18:37:00.551Z,13.42
2019-02-17T18:39:29.175Z,13.36
2019-02-17T18:41:57.715Z,13.36
2019-02-17T18:44:26.286Z,13.14
2019-02-17T18:46:55.110Z,12.66
2019-02-17T18:49:23.931Z,13.06
2019-02-17T18:51:52.554Z,12.40
2019-02-17T18:54:21.146Z,12.40
2019-02-17T18:56:49.742Z,13.08
2019-02-17T18:59:18.381Z,13.22
2019-02-17T19:01:47.115Z,13.22
2019-02-17T19:04:15.675Z,12.56
2019-02-17T19:06:44.504Z,12.56
2019-02-17T19:09:13.100Z,12.67
2019-02-17T19:11:41.933Z,13.06
2019-02-17T19:14:11.250Z,12.65
2019-02-17T19:16:43.303Z,13.03
2019-02-17T19:19:12.004Z,13.00
2019-02-17T19:21:43.979Z,12.86
2019-02-17T19:24:12.651Z,12.86
2019-02-17T19:26:41.228Z,13.32
2019-02-17T19:29:10.203Z,13.32
2019-02-17T19:31:38.861Z,13.05
2019-02-17T19:34:07.495Z,13.34
2019-02-17T19:36:36.055Z,13.34
2019-02-17T19:39:05.917Z,13.22
2019-02-17T19:41:34.487Z,13.78
2019-02-17T19:44:03.091Z,13.78
2019-02-17T19:46:32.017Z,13.69
2019-02-17T19:49:00.711Z,13.82
2019-02-17T19:51:29.321Z,13.62
2019-02-17T19:53:58.000Z,13.62
2019-02-17T19:56:26.824Z,13.71
2019-02-17T19:58:55.406Z,13.75
2019-02-17T20:01:24.217Z,13.59
2019-02-17T20:04:12.135Z,14.41
2019-02-17T20:06:40.661Z,14.41
2019-02-17T20:09:16.824Z,14.24
2019-02-17T20:11:45.397Z,13.39
2019-02-17T20:14:14.301Z,13.39
2019-02-17T20:16:42.910Z,13.11
2019-02-17T20:19:11.510Z,13.20
2019-02-17T20:21:40.103Z,13.13
2019-02-17T20:24:08.728Z,13.08
2019-02-17T20:26:37.365Z,13.08
2019-02-17T20:29:06.073Z,13.01
2019-02-17T20:31:34.638Z,13.10
2019-02-17T20:34:03.455Z,13.01
2019-02-17T20:36:32.059Z,12.60
2019-02-17T20:39:00.709Z,12.87
2019-02-17T20:41:29.912Z,12.87
2019-02-17T20:43:58.532Z,12.78
2019-02-17T20:46:27.130Z,12.79
2019-02-17T20:48:55.981Z,12.79
2019-02-17T20:51:24.580Z,12.39
2019-02-17T20:53:53.240Z,12.64
2019-02-17T20:56:21.960Z,12.64
2019-02-17T20:58:50.838Z,12.33
2019-02-17T21:01:19.673Z,12.92
2019-02-17T21:03:48.257Z,12.66
2019-02-17T21:06:16.929Z,12.66
2019-02-17T21:08:45.730Z,12.76
2019-02-17T21:11:14.776Z,12.53
2019-02-17T21:13:43.363Z,12.46
2019-02-17T21:16:12.272Z,11.91
2019-02-17T21:18:40.839Z,11.76
2019-02-17T21:21:09.772Z,11.65
2019-02-17T21:23:38.367Z,11.19
2019-02-17T21:26:07.128Z,11.29
2019-02-17T21:28:35.887Z,12.31
2019-02-17T21:31:04.844Z,12.22
2019-02-17T21:33:33.648Z,12.34
2019-02-17T21:36:02.360Z,12.50
2019-02-17T21:38:30.930Z,12.40
2019-02-17T21:41:08.997Z,12.50
2019-02-17T21:43:30.090Z,12.46
2019-02-17T21:45:59.009Z,12.48
2019-02-17T21:48:27.659Z,12.53
2019-02-17T21:50:56.536Z,12.35
2019-02-17T21:53:25.237Z,12.41
2019-02-17T21:55:53.973Z,12.39
2019-02-17T21:58:22.640Z,12.38
2019-02-17T22:00:51.251Z,12.81
2019-02-17T22:03:19.873Z,12.77
2019-02-17T22:05:48.525Z,12.90
2019-02-17T22:08:17.140Z,12.90
2019-02-17T22:10:45.907Z,12.89
2019-02-17T22:13:14.604Z,12.89
2019-02-17T22:15:43.647Z,12.82
2019-02-17T22:18:12.666Z,12.81
2019-02-17T22:20:41.280Z,12.89
2019-02-17T22:23:09.947Z,12.88
2019-02-17T22:25:38.648Z,12.73
2019-02-17T22:28:07.363Z,12.82
2019-02-17T22:30:36.037Z,12.99
2019-02-17T22:33:04.684Z,12.91
2019-02-17T22:35:33.291Z,12.95
2019-02-17T22:38:02.088Z,12.82
2019-02-17T22:40:30.738Z,13.03
2019-02-17T22:42:59.343Z,12.88
2019-02-17T22:45:27.910Z,12.90
2019-02-17T22:47:56.560Z,12.83
2019-02-17T22:50:25.207Z,12.84
2019-02-17T22:52:54.317Z,12.72
2019-02-17T22:55:22.950Z,12.73
2019-02-17T22:57:51.604Z,12.61
2019-02-17T23:00:32.684Z,12.40
2019-02-17T23:03:01.523Z,12.42
2019-02-17T23:05:30.222Z,12.24
2019-02-17T23:07:58.891Z,12.06
2019-02-17T23:10:27.449Z,12.00
2019-02-17T23:12:56.326Z,12.01
2019-02-17T23:15:24.886Z,11.92
2019-02-17T23:17:53.524Z,11.96
2019-02-17T23:20:22.186Z,12.03
2019-02-17T23:22:51.253Z,11.89
2019-02-17T23:25:20.100Z,11.89
2019-02-17T23:27:48.748Z,11.84
2019-02-17T23:30:17.419Z,11.86
2019-02-17T23:32:46.073Z,11.49
2019-02-17T23:35:14.894Z,11.40
2019-02-17T23:37:43.487Z,11.23
2019-02-17T23:40:12.246Z,11.25
2019-02-17T23:42:40.912Z,11.04
2019-02-17T23:45:09.716Z,10.81
2019-02-17T23:47:38.286Z,11.13
2019-02-17T23:50:07.130Z,11.09
2019-02-17T23:52:35.716Z,11.02
2019-02-17T23:55:04.547Z,10.79
2019-02-17T23:57:33.480Z,10.67
